sensor_id;sensor_type;location;lat;lon;timestamp;P1;durP1;ratioP1;P2;durP2;ratioP2
6356;SDS011;3211;53.452;-2.264;2023-03-01T00:02:21;3.90;;;1.90;;
6356;SDS011;3211;53.452;-2.264;2023-03-01T00:04:48;2.93;;;1.60;;
6356;SDS011;3211;53.452;-2.264;2023-03-01T00:07:15;2.57;;;1.70;;
6356;SDS011;3211;53.452;-2.264;2023-03-01T00:09:42;2.50;;;1.50;;
6356;SDS011;3211;53.452;-2.264;2023-03-01T00:12:12;2.23;;;1.70;;
6356;SDS011;3211;53.452;-2.264;2023-03-01T00:14:39;2.37;;;1.60;;
6356;SDS011;3211;53.452;-2.264;2023-03-01T00:17:06;4.60;;;1.80;;
6356;SDS011;3211;53.452;-2.264;2023-03-01T00:19:33;2.17;;;1.50;;
6356;SDS011;3211;53.452;-2.264;2023-03-01T00:22:00;2.77;;;1.70;;
6356;SDS011;3211;53.452;-2.264;2023-03-01T00:24:27;4.60;;;1.83;;
6356;SDS011;3211;53.452;-2.264;2023-03-01T00:26:54;2.17;;;1.53;;
6356;SDS011;3211;53.452;-2.264;2023-03-01T00:29:23;6.03;;;1.83;;
6356;SDS011;3211;53.452;-2.264;2023-03-01T00:31:50;2.67;;;1.70;;
6356;SDS011;3211;53.452;-2.264;2023-03-01T00:34:17;3.03;;;2.30;;
6356;SDS011;3211;53.452;-2.264;2023-03-01T00:36:44;7.80;;;2.60;;
6356;SDS011;3211;53.452;-2.264;2023-03-01T00:39:12;5.27;;;2.00;;
6356;SDS011;3211;53.452;-2.264;2023-03-01T00:41:40;2.53;;;1.80;;
6356;SDS011;3211;53.452;-2.264;2023-03-01T00:44:08;8.30;;;2.20;;
6356;SDS011;3211;53.452;-2.264;2023-03-01T00:46:36;7.07;;;2.17;;
6356;SDS011;3211;53.452;-2.264;2023-03-01T00:49:03;2.53;;;1.80;;
6356;SDS011;3211;53.452;-2.264;2023-03-01T00:51:30;3.93;;;2.40;;
6356;SDS011;3211;53.452;-2.264;2023-03-01T00:53:59;6.53;;;2.10;;
6356;SDS011;3211;53.452;-2.264;2023-03-01T00:56:26;2.33;;;1.50;;
6356;SDS011;3211;53.452;-2.264;2023-03-01T00:58:53;5.43;;;1.33;;
6356;SDS011;3211;53.452;-2.264;2023-03-01T01:01:21;2.83;;;1.77;;
6356;SDS011;3211;53.452;-2.264;2023-03-01T01:03:52;5.07;;;1.67;;
6356;SDS011;3211;53.452;-2.264;2023-03-01T01:06:20;4.30;;;1.70;;
6356;SDS011;3211;53.452;-2.264;2023-03-01T01:08:49;2.57;;;1.70;;
6356;SDS011;3211;53.452;-2.264;2023-03-01T01:11:17;2.40;;;1.40;;
6356;SDS011;3211;53.452;-2.264;2023-03-01T01:13:45;4.80;;;1.77;;
6356;SDS011;3211;53.452;-2.264;2023-03-01T01:16:13;5.10;;;2.10;;
6356;SDS011;3211;53.452;-2.264;2023-03-01T01:18:41;3.30;;;2.00;;
6356;SDS011;3211;53.452;-2.264;2023-03-01T01:21:10;2.20;;;1.60;;
6356;SDS011;3211;53.452;-2.264;2023-03-01T01:23:38;2.07;;;1.40;;
6356;SDS011;3211;53.452;-2.264;2023-03-01T01:26:07;2.40;;;1.60;;
6356;SDS011;3211;53.452;-2.264;2023-03-01T01:28:36;2.17;;;1.47;;
6356;SDS011;3211;53.452;-2.264;2023-03-01T01:31:03;2.43;;;1.23;;
6356;SDS011;3211;53.452;-2.264;2023-03-01T01:33:30;7.33;;;1.60;;
6356;SDS011;3211;53.452;-2.264;2023-03-01T01:35:57;3.33;;;1.30;;
6356;SDS011;3211;53.452;-2.264;2023-03-01T01:38:26;2.50;;;1.50;;
6356;SDS011;3211;53.452;-2.264;2023-03-01T01:40:53;1.47;;;1.03;;
6356;SDS011;3211;53.452;-2.264;2023-03-01T01:43:21;1.77;;;1.40;;
6356;SDS011;3211;53.452;-2.264;2023-03-01T01:45:49;1.37;;;1.20;;
6356;SDS011;3211;53.452;-2.264;2023-03-01T01:48:17;1.53;;;1.13;;
6356;SDS011;3211;53.452;-2.264;2023-03-01T01:50:49;5.40;;;1.33;;
6356;SDS011;3211;53.452;-2.264;2023-03-01T01:53:21;1.73;;;1.20;;
6356;SDS011;3211;53.452;-2.264;2023-03-01T01:55:52;3.27;;;1.30;;
6356;SDS011;3211;53.452;-2.264;2023-03-01T01:58:22;1.67;;;1.20;;
6356;SDS011;3211;53.452;-2.264;2023-03-01T02:00:53;4.10;;;1.37;;
6356;SDS011;3211;53.452;-2.264;2023-03-01T02:03:22;1.40;;;1.00;;
6356;SDS011;3211;53.452;-2.264;2023-03-01T02:05:55;1.70;;;1.17;;
6356;SDS011;3211;53.452;-2.264;2023-03-01T02:08:27;2.53;;;1.20;;
6356;SDS011;3211;53.452;-2.264;2023-03-01T02:10:58;1.93;;;1.60;;
6356;SDS011;3211;53.452;-2.264;2023-03-01T02:13:25;1.67;;;1.20;;
6356;SDS011;3211;53.452;-2.264;2023-03-01T02:15:53;1.93;;;1.30;;
6356;SDS011;3211;53.452;-2.264;2023-03-01T02:18:20;1.23;;;1.13;;
6356;SDS011;3211;53.452;-2.264;2023-03-01T02:20:52;2.33;;;0.90;;
6356;SDS011;3211;53.452;-2.264;2023-03-01T02:23:32;3.97;;;1.30;;
6356;SDS011;3211;53.452;-2.264;2023-03-01T02:26:02;1.87;;;1.07;;
6356;SDS011;3211;53.452;-2.264;2023-03-01T02:28:34;2.10;;;1.20;;
6356;SDS011;3211;53.452;-2.264;2023-03-01T02:31:03;1.50;;;1.30;;
6356;SDS011;3211;53.452;-2.264;2023-03-01T02:33:50;1.17;;;1.07;;
6356;SDS011;3211;53.452;-2.264;2023-03-01T02:36:19;2.20;;;1.43;;
6356;SDS011;3211;53.452;-2.264;2023-03-01T02:38:49;1.30;;;1.00;;
6356;SDS011;3211;53.452;-2.264;2023-03-01T02:41:19;2.83;;;1.20;;
6356;SDS011;3211;53.452;-2.264;2023-03-01T02:43:49;1.60;;;1.17;;
6356;SDS011;3211;53.452;-2.264;2023-03-01T02:46:17;1.93;;;1.20;;
6356;SDS011;3211;53.452;-2.264;2023-03-01T02:48:47;1.60;;;1.13;;
6356;SDS011;3211;53.452;-2.264;2023-03-01T02:51:26;4.20;;;1.23;;
6356;SDS011;3211;53.452;-2.264;2023-03-01T02:54:07;2.50;;;1.20;;
6356;SDS011;3211;53.452;-2.264;2023-03-01T02:56:41;1.30;;;1.20;;
6356;SDS011;3211;53.452;-2.264;2023-03-01T02:59:15;3.70;;;1.70;;
6356;SDS011;3211;53.452;-2.264;2023-03-01T03:01:44;2.10;;;1.10;;
6356;SDS011;3211;53.452;-2.264;2023-03-01T03:04:12;2.13;;;1.13;;
6356;SDS011;3211;53.452;-2.264;2023-03-01T03:06:43;3.03;;;1.13;;
6356;SDS011;3211;53.452;-2.264;2023-03-01T03:09:10;2.73;;;1.20;;
6356;SDS011;3211;53.452;-2.264;2023-03-01T03:11:37;3.87;;;1.17;;
6356;SDS011;3211;53.452;-2.264;2023-03-01T03:14:06;1.30;;;1.20;;
6356;SDS011;3211;53.452;-2.264;2023-03-01T03:16:40;2.60;;;1.33;;
6356;SDS011;3211;53.452;-2.264;2023-03-01T03:19:08;2.40;;;1.30;;
6356;SDS011;3211;53.452;-2.264;2023-03-01T03:21:35;1.50;;;1.40;;
6356;SDS011;3211;53.452;-2.264;2023-03-01T03:24:03;4.00;;;1.57;;
6356;SDS011;3211;53.452;-2.264;2023-03-01T03:26:30;2.47;;;1.30;;
6356;SDS011;3211;53.452;-2.264;2023-03-01T03:28:57;2.30;;;1.33;;
6356;SDS011;3211;53.452;-2.264;2023-03-01T03:31:24;1.77;;;1.20;;
6356;SDS011;3211;53.452;-2.264;2023-03-01T03:33:52;3.43;;;1.40;;
6356;SDS011;3211;53.452;-2.264;2023-03-01T03:36:20;2.60;;;1.47;;
6356;SDS011;3211;53.452;-2.264;2023-03-01T03:38:49;1.87;;;1.10;;
6356;SDS011;3211;53.452;-2.264;2023-03-01T03:41:16;1.60;;;1.37;;
6356;SDS011;3211;53.452;-2.264;2023-03-01T03:43:43;3.40;;;1.53;;
6356;SDS011;3211;53.452;-2.264;2023-03-01T03:46:10;4.60;;;1.57;;
6356;SDS011;3211;53.452;-2.264;2023-03-01T03:48:38;3.97;;;1.60;;
6356;SDS011;3211;53.452;-2.264;2023-03-01T03:51:09;1.83;;;1.20;;
6356;SDS011;3211;53.452;-2.264;2023-03-01T03:53:37;2.63;;;1.40;;
6356;SDS011;3211;53.452;-2.264;2023-03-01T03:56:04;3.00;;;1.23;;
6356;SDS011;3211;53.452;-2.264;2023-03-01T03:58:32;2.47;;;1.30;;
6356;SDS011;3211;53.452;-2.264;2023-03-01T04:00:59;2.97;;;1.10;;
6356;SDS011;3211;53.452;-2.264;2023-03-01T04:03:28;2.13;;;1.00;;
6356;SDS011;3211;53.452;-2.264;2023-03-01T04:05:57;1.87;;;1.20;;
6356;SDS011;3211;53.452;-2.264;2023-03-01T04:08:26;5.07;;;1.13;;
6356;SDS011;3211;53.452;-2.264;2023-03-01T04:10:56;1.40;;;1.20;;
6356;SDS011;3211;53.452;-2.264;2023-03-01T04:13:25;1.47;;;1.27;;
6356;SDS011;3211;53.452;-2.264;2023-03-01T04:15:52;2.00;;;1.20;;
6356;SDS011;3211;53.452;-2.264;2023-03-01T04:18:21;1.30;;;1.10;;
6356;SDS011;3211;53.452;-2.264;2023-03-01T04:20:49;1.43;;;1.17;;
6356;SDS011;3211;53.452;-2.264;2023-03-01T04:23:20;1.20;;;1.10;;
6356;SDS011;3211;53.452;-2.264;2023-03-01T04:25:49;1.27;;;1.17;;
6356;SDS011;3211;53.452;-2.264;2023-03-01T04:28:19;2.90;;;1.17;;
6356;SDS011;3211;53.452;-2.264;2023-03-01T04:30:49;2.13;;;1.10;;
6356;SDS011;3211;53.452;-2.264;2023-03-01T04:33:16;2.30;;;1.20;;
6356;SDS011;3211;53.452;-2.264;2023-03-01T04:35:44;5.30;;;1.43;;
6356;SDS011;3211;53.452;-2.264;2023-03-01T04:38:11;1.60;;;1.20;;
6356;SDS011;3211;53.452;-2.264;2023-03-01T04:40:38;1.80;;;1.30;;
6356;SDS011;3211;53.452;-2.264;2023-03-01T04:43:09;1.30;;;1.10;;
6356;SDS011;3211;53.452;-2.264;2023-03-01T04:45:39;1.40;;;1.10;;
6356;SDS011;3211;53.452;-2.264;2023-03-01T04:48:06;1.87;;;1.30;;
6356;SDS011;3211;53.452;-2.264;2023-03-01T04:50:33;1.60;;;1.20;;
6356;SDS011;3211;53.452;-2.264;2023-03-01T04:53:00;3.27;;;1.10;;
6356;SDS011;3211;53.452;-2.264;2023-03-01T04:55:28;1.80;;;1.13;;
6356;SDS011;3211;53.452;-2.264;2023-03-01T04:57:56;1.60;;;1.30;;
6356;SDS011;3211;53.452;-2.264;2023-03-01T05:00:24;1.20;;;1.10;;
6356;SDS011;3211;53.452;-2.264;2023-03-01T05:02:52;3.67;;;1.30;;
6356;SDS011;3211;53.452;-2.264;2023-03-01T05:05:22;1.70;;;1.30;;
6356;SDS011;3211;53.452;-2.264;2023-03-01T05:07:52;1.30;;;1.10;;
6356;SDS011;3211;53.452;-2.264;2023-03-01T05:10:20;1.20;;;0.90;;
6356;SDS011;3211;53.452;-2.264;2023-03-01T05:12:47;2.43;;;1.13;;
6356;SDS011;3211;53.452;-2.264;2023-03-01T05:15:14;1.23;;;1.00;;
6356;SDS011;3211;53.452;-2.264;2023-03-01T05:17:42;1.87;;;1.17;;
6356;SDS011;3211;53.452;-2.264;2023-03-01T05:20:10;2.60;;;1.50;;
6356;SDS011;3211;53.452;-2.264;2023-03-01T05:22:37;1.77;;;1.67;;
6356;SDS011;3211;53.452;-2.264;2023-03-01T05:25:04;1.23;;;1.13;;
6356;SDS011;3211;53.452;-2.264;2023-03-01T05:27:33;1.70;;;1.30;;
6356;SDS011;3211;53.452;-2.264;2023-03-01T05:30:00;4.00;;;1.40;;
6356;SDS011;3211;53.452;-2.264;2023-03-01T05:32:39;1.47;;;1.20;;
6356;SDS011;3211;53.452;-2.264;2023-03-01T05:35:12;1.73;;;1.10;;
6356;SDS011;3211;53.452;-2.264;2023-03-01T05:37:41;2.33;;;1.30;;
6356;SDS011;3211;53.452;-2.264;2023-03-01T05:40:09;2.30;;;1.40;;
6356;SDS011;3211;53.452;-2.264;2023-03-01T05:42:42;2.83;;;1.33;;
6356;SDS011;3211;53.452;-2.264;2023-03-01T05:45:10;1.10;;;1.00;;
6356;SDS011;3211;53.452;-2.264;2023-03-01T05:47:38;1.20;;;1.10;;
6356;SDS011;3211;53.452;-2.264;2023-03-01T05:50:10;2.80;;;1.30;;
6356;SDS011;3211;53.452;-2.264;2023-03-01T05:52:38;1.20;;;1.00;;
6356;SDS011;3211;53.452;-2.264;2023-03-01T05:55:06;1.30;;;1.20;;
6356;SDS011;3211;53.452;-2.264;2023-03-01T05:57:33;1.20;;;1.10;;
6356;SDS011;3211;53.452;-2.264;2023-03-01T06:00:00;1.27;;;1.10;;
6356;SDS011;3211;53.452;-2.264;2023-03-01T06:02:46;3.40;;;1.30;;
6356;SDS011;3211;53.452;-2.264;2023-03-01T06:05:33;1.30;;;1.20;;
6356;SDS011;3211;53.452;-2.264;2023-03-01T06:08:00;3.50;;;1.40;;
6356;SDS011;3211;53.452;-2.264;2023-03-01T06:10:28;2.50;;;1.10;;
6356;SDS011;3211;53.452;-2.264;2023-03-01T06:12:55;1.30;;;1.20;;
6356;SDS011;3211;53.452;-2.264;2023-03-01T06:15:23;1.17;;;1.07;;
6356;SDS011;3211;53.452;-2.264;2023-03-01T06:17:50;2.03;;;0.97;;
6356;SDS011;3211;53.452;-2.264;2023-03-01T06:20:18;2.63;;;1.13;;
6356;SDS011;3211;53.452;-2.264;2023-03-01T06:22:47;1.43;;;1.10;;
6356;SDS011;3211;53.452;-2.264;2023-03-01T06:25:16;1.77;;;1.20;;
6356;SDS011;3211;53.452;-2.264;2023-03-01T06:27:44;1.40;;;1.10;;
6356;SDS011;3211;53.452;-2.264;2023-03-01T06:30:13;2.90;;;1.33;;
6356;SDS011;3211;53.452;-2.264;2023-03-01T06:32:42;1.30;;;1.20;;
6356;SDS011;3211;53.452;-2.264;2023-03-01T06:35:09;1.20;;;1.10;;
6356;SDS011;3211;53.452;-2.264;2023-03-01T06:37:37;2.77;;;1.20;;
6356;SDS011;3211;53.452;-2.264;2023-03-01T06:40:08;2.60;;;1.07;;
6356;SDS011;3211;53.452;-2.264;2023-03-01T06:42:37;3.67;;;1.40;;
6356;SDS011;3211;53.452;-2.264;2023-03-01T06:45:05;1.77;;;1.10;;
6356;SDS011;3211;53.452;-2.264;2023-03-01T06:47:33;1.50;;;1.20;;
6356;SDS011;3211;53.452;-2.264;2023-03-01T06:50:00;2.10;;;1.17;;
6356;SDS011;3211;53.452;-2.264;2023-03-01T06:52:28;3.20;;;1.30;;
6356;SDS011;3211;53.452;-2.264;2023-03-01T06:54:55;2.07;;;1.87;;
6356;SDS011;3211;53.452;-2.264;2023-03-01T06:57:24;1.40;;;1.17;;
6356;SDS011;3211;53.452;-2.264;2023-03-01T06:59:51;4.90;;;1.30;;
6356;SDS011;3211;53.452;-2.264;2023-03-01T07:02:18;2.10;;;1.50;;
6356;SDS011;3211;53.452;-2.264;2023-03-01T07:04:45;2.60;;;1.07;;
6356;SDS011;3211;53.452;-2.264;2023-03-01T07:07:12;1.60;;;1.20;;
6356;SDS011;3211;53.452;-2.264;2023-03-01T07:09:39;2.47;;;1.30;;
6356;SDS011;3211;53.452;-2.264;2023-03-01T07:12:06;6.53;;;1.20;;
6356;SDS011;3211;53.452;-2.264;2023-03-01T07:14:34;2.60;;;1.20;;
6356;SDS011;3211;53.452;-2.264;2023-03-01T07:17:01;2.33;;;1.20;;
6356;SDS011;3211;53.452;-2.264;2023-03-01T07:19:28;2.73;;;1.60;;
6356;SDS011;3211;53.452;-2.264;2023-03-01T07:21:55;3.13;;;1.57;;
6356;SDS011;3211;53.452;-2.264;2023-03-01T07:24:22;2.97;;;1.30;;
6356;SDS011;3211;53.452;-2.264;2023-03-01T07:26:49;2.73;;;1.50;;
6356;SDS011;3211;53.452;-2.264;2023-03-01T07:29:17;2.87;;;1.20;;
6356;SDS011;3211;53.452;-2.264;2023-03-01T07:31:45;2.43;;;1.40;;
6356;SDS011;3211;53.452;-2.264;2023-03-01T07:34:12;1.73;;;1.20;;
6356;SDS011;3211;53.452;-2.264;2023-03-01T07:36:39;5.83;;;1.37;;
6356;SDS011;3211;53.452;-2.264;2023-03-01T07:39:08;1.80;;;1.20;;
6356;SDS011;3211;53.452;-2.264;2023-03-01T07:41:35;6.33;;;1.40;;
6356;SDS011;3211;53.452;-2.264;2023-03-01T07:44:02;1.30;;;1.20;;
6356;SDS011;3211;53.452;-2.264;2023-03-01T07:46:29;3.80;;;1.30;;
6356;SDS011;3211;53.452;-2.264;2023-03-01T07:48:58;2.80;;;1.20;;
6356;SDS011;3211;53.452;-2.264;2023-03-01T07:51:25;2.80;;;1.40;;
6356;SDS011;3211;53.452;-2.264;2023-03-01T07:53:52;3.27;;;1.40;;
6356;SDS011;3211;53.452;-2.264;2023-03-01T07:56:18;5.67;;;1.50;;
6356;SDS011;3211;53.452;-2.264;2023-03-01T07:58:47;4.97;;;1.40;;
6356;SDS011;3211;53.452;-2.264;2023-03-01T08:01:15;2.40;;;1.30;;
6356;SDS011;3211;53.452;-2.264;2023-03-01T08:03:43;2.23;;;1.37;;
6356;SDS011;3211;53.452;-2.264;2023-03-01T08:06:12;3.93;;;1.30;;
6356;SDS011;3211;53.452;-2.264;2023-03-01T08:08:40;3.67;;;1.50;;
6356;SDS011;3211;53.452;-2.264;2023-03-01T08:11:08;2.20;;;1.60;;
6356;SDS011;3211;53.452;-2.264;2023-03-01T08:13:40;3.23;;;1.80;;
6356;SDS011;3211;53.452;-2.264;2023-03-01T08:16:10;3.00;;;2.03;;
6356;SDS011;3211;53.452;-2.264;2023-03-01T08:18:38;2.97;;;1.87;;
6356;SDS011;3211;53.452;-2.264;2023-03-01T08:21:05;4.57;;;1.97;;
6356;SDS011;3211;53.452;-2.264;2023-03-01T08:23:35;3.30;;;1.67;;
6356;SDS011;3211;53.452;-2.264;2023-03-01T08:26:03;5.00;;;2.03;;
6356;SDS011;3211;53.452;-2.264;2023-03-01T08:28:32;4.60;;;2.00;;
6356;SDS011;3211;53.452;-2.264;2023-03-01T08:30:59;1.90;;;1.43;;
6356;SDS011;3211;53.452;-2.264;2023-03-01T08:33:26;9.27;;;1.97;;
6356;SDS011;3211;53.452;-2.264;2023-03-01T08:35:53;3.00;;;1.70;;
6356;SDS011;3211;53.452;-2.264;2023-03-01T08:38:28;2.33;;;1.50;;
6356;SDS011;3211;53.452;-2.264;2023-03-01T08:40:57;6.63;;;1.70;;
6356;SDS011;3211;53.452;-2.264;2023-03-01T08:43:26;5.03;;;1.50;;
6356;SDS011;3211;53.452;-2.264;2023-03-01T08:45:52;3.00;;;1.40;;
6356;SDS011;3211;53.452;-2.264;2023-03-01T08:48:19;1.90;;;1.40;;
6356;SDS011;3211;53.452;-2.264;2023-03-01T08:50:46;5.13;;;1.40;;
6356;SDS011;3211;53.452;-2.264;2023-03-01T08:53:13;4.37;;;1.60;;
6356;SDS011;3211;53.452;-2.264;2023-03-01T08:55:40;2.90;;;1.50;;
6356;SDS011;3211;53.452;-2.264;2023-03-01T08:58:08;3.50;;;1.30;;
6356;SDS011;3211;53.452;-2.264;2023-03-01T09:00:35;3.30;;;1.53;;
6356;SDS011;3211;53.452;-2.264;2023-03-01T09:03:02;3.07;;;1.63;;
6356;SDS011;3211;53.452;-2.264;2023-03-01T09:05:30;5.73;;;1.60;;
6356;SDS011;3211;53.452;-2.264;2023-03-01T09:07:58;3.83;;;1.63;;
6356;SDS011;3211;53.452;-2.264;2023-03-01T09:10:25;5.57;;;1.73;;
6356;SDS011;3211;53.452;-2.264;2023-03-01T09:12:52;2.00;;;1.20;;
6356;SDS011;3211;53.452;-2.264;2023-03-01T09:15:20;2.23;;;1.40;;
6356;SDS011;3211;53.452;-2.264;2023-03-01T09:17:47;2.80;;;1.47;;
6356;SDS011;3211;53.452;-2.264;2023-03-01T09:20:16;5.80;;;1.77;;
6356;SDS011;3211;53.452;-2.264;2023-03-01T09:22:43;1.53;;;1.30;;
6356;SDS011;3211;53.452;-2.264;2023-03-01T09:25:10;4.23;;;1.80;;
6356;SDS011;3211;53.452;-2.264;2023-03-01T09:27:36;6.63;;;1.67;;
6356;SDS011;3211;53.452;-2.264;2023-03-01T09:30:04;1.97;;;1.77;;
6356;SDS011;3211;53.452;-2.264;2023-03-01T09:32:33;3.33;;;1.20;;
6356;SDS011;3211;53.452;-2.264;2023-03-01T09:35:00;4.87;;;1.50;;
6356;SDS011;3211;53.452;-2.264;2023-03-01T09:37:29;3.30;;;1.57;;
6356;SDS011;3211;53.452;-2.264;2023-03-01T09:39:58;4.50;;;2.03;;
6356;SDS011;3211;53.452;-2.264;2023-03-01T09:42:25;6.00;;;2.90;;
6356;SDS011;3211;53.452;-2.264;2023-03-01T09:44:54;8.37;;;4.70;;
6356;SDS011;3211;53.452;-2.264;2023-03-01T09:47:26;6.70;;;3.17;;
6356;SDS011;3211;53.452;-2.264;2023-03-01T09:50:00;5.20;;;2.33;;
6356;SDS011;3211;53.452;-2.264;2023-03-01T09:52:34;3.27;;;2.57;;
6356;SDS011;3211;53.452;-2.264;2023-03-01T09:55:07;5.47;;;3.37;;
6356;SDS011;3211;53.452;-2.264;2023-03-01T09:57:38;5.30;;;2.30;;
6356;SDS011;3211;53.452;-2.264;2023-03-01T10:00:20;4.50;;;1.67;;
6356;SDS011;3211;53.452;-2.264;2023-03-01T10:02:58;3.87;;;2.23;;
6356;SDS011;3211;53.452;-2.264;2023-03-01T10:05:39;3.87;;;1.93;;
6356;SDS011;3211;53.452;-2.264;2023-03-01T10:08:24;4.10;;;1.80;;
6356;SDS011;3211;53.452;-2.264;2023-03-01T10:11:13;3.90;;;2.07;;
6356;SDS011;3211;53.452;-2.264;2023-03-01T10:13:46;2.60;;;1.33;;
6356;SDS011;3211;53.452;-2.264;2023-03-01T10:16:21;1.87;;;1.30;;
6356;SDS011;3211;53.452;-2.264;2023-03-01T10:18:53;4.40;;;2.10;;
6356;SDS011;3211;53.452;-2.264;2023-03-01T10:21:27;2.83;;;1.70;;
6356;SDS011;3211;53.452;-2.264;2023-03-01T10:23:58;3.03;;;1.50;;
6356;SDS011;3211;53.452;-2.264;2023-03-01T10:26:38;3.60;;;2.07;;
6356;SDS011;3211;53.452;-2.264;2023-03-01T10:29:12;2.27;;;1.60;;
6356;SDS011;3211;53.452;-2.264;2023-03-01T10:31:41;2.63;;;1.50;;
6356;SDS011;3211;53.452;-2.264;2023-03-01T10:34:11;2.27;;;1.37;;
6356;SDS011;3211;53.452;-2.264;2023-03-01T10:36:42;2.97;;;1.40;;
6356;SDS011;3211;53.452;-2.264;2023-03-01T10:39:11;4.00;;;1.63;;
6356;SDS011;3211;53.452;-2.264;2023-03-01T10:41:55;2.17;;;1.40;;
6356;SDS011;3211;53.452;-2.264;2023-03-01T10:44:43;2.70;;;1.63;;
6356;SDS011;3211;53.452;-2.264;2023-03-01T10:47:19;1.73;;;1.40;;
6356;SDS011;3211;53.452;-2.264;2023-03-01T10:49:54;4.70;;;1.70;;
6356;SDS011;3211;53.452;-2.264;2023-03-01T10:52:31;5.10;;;1.70;;
6356;SDS011;3211;53.452;-2.264;2023-03-01T10:55:00;2.17;;;1.40;;
6356;SDS011;3211;53.452;-2.264;2023-03-01T10:57:31;3.57;;;1.30;;
6356;SDS011;3211;53.452;-2.264;2023-03-01T11:02:49;4.00;;;1.60;;
6356;SDS011;3211;53.452;-2.264;2023-03-01T11:05:19;3.33;;;1.33;;
6356;SDS011;3211;53.452;-2.264;2023-03-01T11:07:50;3.50;;;1.40;;
6356;SDS011;3211;53.452;-2.264;2023-03-01T11:10:20;3.60;;;1.30;;
6356;SDS011;3211;53.452;-2.264;2023-03-01T11:12:50;1.80;;;1.37;;
6356;SDS011;3211;53.452;-2.264;2023-03-01T11:15:23;3.00;;;1.47;;
6356;SDS011;3211;53.452;-2.264;2023-03-01T11:17:52;2.73;;;1.33;;
6356;SDS011;3211;53.452;-2.264;2023-03-01T11:20:24;4.00;;;3.03;;
6356;SDS011;3211;53.452;-2.264;2023-03-01T11:22:55;1.80;;;1.30;;
6356;SDS011;3211;53.452;-2.264;2023-03-01T11:25:26;4.30;;;1.33;;
6356;SDS011;3211;53.452;-2.264;2023-03-01T11:27:57;3.63;;;1.70;;
6356;SDS011;3211;53.452;-2.264;2023-03-01T11:30:28;3.17;;;1.50;;
6356;SDS011;3211;53.452;-2.264;2023-03-01T11:33:01;7.20;;;1.70;;
6356;SDS011;3211;53.452;-2.264;2023-03-01T11:35:37;2.90;;;1.70;;
6356;SDS011;3211;53.452;-2.264;2023-03-01T11:38:15;3.17;;;1.63;;
6356;SDS011;3211;53.452;-2.264;2023-03-01T11:40:47;3.03;;;1.50;;
6356;SDS011;3211;53.452;-2.264;2023-03-01T11:43:20;2.07;;;1.40;;
6356;SDS011;3211;53.452;-2.264;2023-03-01T11:45:58;1.47;;;1.30;;
6356;SDS011;3211;53.452;-2.264;2023-03-01T11:48:49;2.07;;;1.37;;
6356;SDS011;3211;53.452;-2.264;2023-03-01T11:51:24;2.03;;;1.33;;
6356;SDS011;3211;53.452;-2.264;2023-03-01T11:54:09;3.20;;;1.63;;
6356;SDS011;3211;53.452;-2.264;2023-03-01T11:56:50;1.50;;;1.20;;
6356;SDS011;3211;53.452;-2.264;2023-03-01T11:59:31;1.87;;;1.40;;
6356;SDS011;3211;53.452;-2.264;2023-03-01T12:05:18;2.03;;;1.30;;
6356;SDS011;3211;53.452;-2.264;2023-03-01T12:07:59;4.43;;;1.50;;
6356;SDS011;3211;53.452;-2.264;2023-03-01T12:10:35;2.97;;;1.43;;
6356;SDS011;3211;53.452;-2.264;2023-03-01T12:13:17;7.77;;;1.30;;
6356;SDS011;3211;53.452;-2.264;2023-03-01T12:15:57;3.50;;;1.33;;
6356;SDS011;3211;53.452;-2.264;2023-03-01T12:18:46;3.73;;;1.37;;
6356;SDS011;3211;53.452;-2.264;2023-03-01T12:21:43;2.93;;;1.47;;
6356;SDS011;3211;53.452;-2.264;2023-03-01T12:24:33;1.93;;;1.17;;
6356;SDS011;3211;53.452;-2.264;2023-03-01T12:27:20;2.67;;;1.30;;
6356;SDS011;3211;53.452;-2.264;2023-03-01T12:30:03;1.50;;;1.30;;
6356;SDS011;3211;53.452;-2.264;2023-03-01T12:32:47;3.23;;;1.37;;
6356;SDS011;3211;53.452;-2.264;2023-03-01T12:35:33;2.47;;;1.40;;
6356;SDS011;3211;53.452;-2.264;2023-03-01T12:38:14;2.53;;;1.73;;
6356;SDS011;3211;53.452;-2.264;2023-03-01T12:41:01;6.73;;;1.53;;
6356;SDS011;3211;53.452;-2.264;2023-03-01T12:43:48;3.00;;;1.30;;
6356;SDS011;3211;53.452;-2.264;2023-03-01T12:46:30;1.23;;;1.13;;
6356;SDS011;3211;53.452;-2.264;2023-03-01T12:49:08;4.20;;;1.50;;
6356;SDS011;3211;53.452;-2.264;2023-03-01T12:51:39;1.67;;;1.00;;
6356;SDS011;3211;53.452;-2.264;2023-03-01T12:54:13;2.23;;;1.20;;
6356;SDS011;3211;53.452;-2.264;2023-03-01T12:56:42;1.83;;;1.10;;
6356;SDS011;3211;53.452;-2.264;2023-03-01T12:59:19;3.00;;;1.30;;
6356;SDS011;3211;53.452;-2.264;2023-03-01T13:01:52;1.97;;;1.10;;
6356;SDS011;3211;53.452;-2.264;2023-03-01T13:04:35;5.37;;;1.93;;
6356;SDS011;3211;53.452;-2.264;2023-03-01T13:07:19;1.67;;;1.40;;
6356;SDS011;3211;53.452;-2.264;2023-03-01T13:09:58;2.70;;;1.30;;
6356;SDS011;3211;53.452;-2.264;2023-03-01T13:12:51;2.00;;;1.20;;
6356;SDS011;3211;53.452;-2.264;2023-03-01T13:15:29;1.83;;;1.17;;
6356;SDS011;3211;53.452;-2.264;2023-03-01T13:17:58;3.00;;;1.53;;
6356;SDS011;3211;53.452;-2.264;2023-03-01T13:20:27;5.17;;;1.50;;
6356;SDS011;3211;53.452;-2.264;2023-03-01T13:23:06;1.70;;;1.10;;
6356;SDS011;3211;53.452;-2.264;2023-03-01T13:25:36;1.57;;;1.20;;
6356;SDS011;3211;53.452;-2.264;2023-03-01T13:37:28;1.63;;;1.30;;
6356;SDS011;3211;53.452;-2.264;2023-03-01T13:39:58;2.23;;;1.37;;
6356;SDS011;3211;53.452;-2.264;2023-03-01T13:42:41;1.80;;;1.23;;
6356;SDS011;3211;53.452;-2.264;2023-03-01T13:45:19;1.93;;;1.60;;
6356;SDS011;3211;53.452;-2.264;2023-03-01T13:47:50;1.50;;;1.10;;
6356;SDS011;3211;53.452;-2.264;2023-03-01T13:50:25;2.00;;;1.10;;
6356;SDS011;3211;53.452;-2.264;2023-03-01T13:52:56;4.30;;;1.57;;
6356;SDS011;3211;53.452;-2.264;2023-03-01T13:55:26;2.10;;;1.20;;
6356;SDS011;3211;53.452;-2.264;2023-03-01T13:57:59;1.10;;;1.00;;
6356;SDS011;3211;53.452;-2.264;2023-03-01T14:00:28;2.73;;;1.40;;
6356;SDS011;3211;53.452;-2.264;2023-03-01T14:03:05;3.10;;;1.40;;
6356;SDS011;3211;53.452;-2.264;2023-03-01T14:05:39;1.97;;;1.23;;
6356;SDS011;3211;53.452;-2.264;2023-03-01T14:08:17;5.13;;;1.30;;
6356;SDS011;3211;53.452;-2.264;2023-03-01T14:10:53;2.23;;;1.47;;
6356;SDS011;3211;53.452;-2.264;2023-03-01T14:13:31;2.80;;;1.30;;
6356;SDS011;3211;53.452;-2.264;2023-03-01T14:16:14;2.07;;;1.33;;
6356;SDS011;3211;53.452;-2.264;2023-03-01T14:18:55;2.93;;;1.20;;
6356;SDS011;3211;53.452;-2.264;2023-03-01T14:21:33;1.87;;;1.30;;
6356;SDS011;3211;53.452;-2.264;2023-03-01T14:24:01;4.60;;;1.40;;
6356;SDS011;3211;53.452;-2.264;2023-03-01T14:26:29;2.53;;;1.40;;
6356;SDS011;3211;53.452;-2.264;2023-03-01T14:28:59;1.60;;;1.20;;
6356;SDS011;3211;53.452;-2.264;2023-03-01T14:31:31;1.80;;;1.27;;
6356;SDS011;3211;53.452;-2.264;2023-03-01T14:34:02;4.87;;;1.60;;
6356;SDS011;3211;53.452;-2.264;2023-03-01T14:36:30;3.17;;;1.40;;
6356;SDS011;3211;53.452;-2.264;2023-03-01T14:39:00;4.63;;;1.80;;
6356;SDS011;3211;53.452;-2.264;2023-03-01T14:41:41;2.33;;;1.60;;
6356;SDS011;3211;53.452;-2.264;2023-03-01T14:44:12;3.00;;;1.70;;
6356;SDS011;3211;53.452;-2.264;2023-03-01T14:46:43;1.90;;;1.47;;
6356;SDS011;3211;53.452;-2.264;2023-03-01T14:49:12;2.80;;;1.27;;
6356;SDS011;3211;53.452;-2.264;2023-03-01T14:51:45;2.47;;;1.40;;
6356;SDS011;3211;53.452;-2.264;2023-03-01T14:54:23;2.80;;;1.40;;
6356;SDS011;3211;53.452;-2.264;2023-03-01T14:56:52;1.83;;;1.33;;
6356;SDS011;3211;53.452;-2.264;2023-03-01T14:59:21;3.13;;;1.33;;
6356;SDS011;3211;53.452;-2.264;2023-03-01T15:01:49;2.23;;;1.20;;
6356;SDS011;3211;53.452;-2.264;2023-03-01T15:04:17;4.97;;;1.17;;
6356;SDS011;3211;53.452;-2.264;2023-03-01T15:06:45;1.83;;;1.40;;
6356;SDS011;3211;53.452;-2.264;2023-03-01T15:09:14;1.97;;;1.30;;
6356;SDS011;3211;53.452;-2.264;2023-03-01T15:11:43;3.63;;;1.30;;
6356;SDS011;3211;53.452;-2.264;2023-03-01T15:14:27;2.40;;;1.50;;
6356;SDS011;3211;53.452;-2.264;2023-03-01T15:16:55;2.60;;;1.50;;
6356;SDS011;3211;53.452;-2.264;2023-03-01T15:19:23;1.40;;;1.30;;
6356;SDS011;3211;53.452;-2.264;2023-03-01T15:21:54;3.87;;;1.60;;
6356;SDS011;3211;53.452;-2.264;2023-03-01T15:24:24;1.80;;;1.37;;
6356;SDS011;3211;53.452;-2.264;2023-03-01T15:26:56;3.30;;;1.40;;
6356;SDS011;3211;53.452;-2.264;2023-03-01T15:29:27;3.30;;;2.00;;
6356;SDS011;3211;53.452;-2.264;2023-03-01T15:31:57;3.77;;;2.17;;
6356;SDS011;3211;53.452;-2.264;2023-03-01T15:34:27;3.20;;;1.47;;
6356;SDS011;3211;53.452;-2.264;2023-03-01T15:36:55;2.77;;;1.50;;
6356;SDS011;3211;53.452;-2.264;2023-03-01T15:39:31;3.23;;;1.70;;